createdAt,value
2023-04-16T00:00:56.738Z,9.96
2023-04-16T00:03:59.091Z,9.97
2023-04-16T00:07:01.269Z,9.89
2023-04-16T00:10:03.256Z,10.50
2023-04-16T00:13:05.196Z,10.26
2023-04-16T00:16:07.367Z,10.26
2023-04-16T00:19:09.730Z,9.90
2023-04-16T00:22:11.775Z,10.61
2023-04-16T00:25:13.867Z,10.85
2023-04-16T00:28:15.692Z,10.10
2023-04-16T00:31:17.658Z,9.78
2023-04-16T00:34:19.544Z,9.30
2023-04-16T00:37:21.537Z,10.09
2023-04-16T00:40:23.461Z,9.72
2023-04-16T00:43:25.921Z,8.80
2023-04-16T00:46:27.864Z,9.70
2023-04-16T00:49:29.933Z,9.06
2023-04-16T00:52:32.005Z,8.90
2023-04-16T00:55:33.934Z,9.44
2023-04-16T00:58:35.853Z,9.53
2023-04-16T01:01:37.744Z,9.19
2023-04-16T01:04:39.726Z,8.90
2023-04-16T01:07:41.592Z,9.16
2023-04-16T01:10:43.441Z,9.00
2023-04-16T01:13:45.401Z,8.92
2023-04-16T01:16:47.347Z,8.39
2023-04-16T01:19:49.203Z,8.82
2023-04-16T01:22:51.045Z,9.23
2023-04-16T01:25:52.910Z,9.11
2023-04-16T01:28:54.822Z,8.95
2023-04-16T01:31:56.696Z,8.87
2023-04-16T01:34:58.498Z,9.36
2023-04-16T01:38:00.363Z,9.70
2023-04-16T01:41:02.207Z,9.28
2023-04-16T01:44:04.133Z,10.31
2023-04-16T01:47:05.911Z,9.43
2023-04-16T01:50:07.909Z,8.60
2023-04-16T01:53:09.747Z,8.93
2023-04-16T01:56:11.670Z,8.65
2023-04-16T01:59:13.543Z,8.64
2023-04-16T02:02:16.250Z,8.88
2023-04-16T02:05:18.267Z,8.81
2023-04-16T02:08:20.160Z,9.06
2023-04-16T02:11:22.043Z,9.14
2023-04-16T02:14:25.618Z,8.62
2023-04-16T02:17:27.583Z,8.59
2023-04-16T02:20:29.539Z,8.77
2023-04-16T02:23:31.388Z,8.35
2023-04-16T02:26:33.332Z,8.80
2023-04-16T02:29:35.344Z,8.93
2023-04-16T02:32:37.248Z,9.19
2023-04-16T02:35:43.588Z,9.12
2023-04-16T02:38:45.370Z,9.43
2023-04-16T02:41:47.240Z,10.16
2023-04-16T02:44:49.058Z,9.69
2023-04-16T02:47:51.086Z,10.19
2023-04-16T02:50:52.973Z,9.72
2023-04-16T02:53:54.848Z,9.70
2023-04-16T02:56:56.931Z,8.83
2023-04-16T02:59:58.790Z,9.14
2023-04-16T03:03:00.789Z,8.53
2023-04-16T03:06:02.665Z,8.95
2023-04-16T03:09:04.655Z,8.82
2023-04-16T03:12:06.549Z,10.04
2023-04-16T03:15:08.665Z,9.84
2023-04-16T03:18:10.692Z,9.32
2023-04-16T03:21:12.602Z,9.70
2023-04-16T03:24:14.502Z,8.83
2023-04-16T03:27:16.384Z,8.97
2023-04-16T03:30:18.243Z,9.47
2023-04-16T03:33:20.690Z,9.29
2023-04-16T03:36:23.346Z,9.42
2023-04-16T03:39:25.347Z,9.52
2023-04-16T03:42:27.248Z,9.09
2023-04-16T03:45:29.046Z,8.98
2023-04-16T03:48:30.926Z,8.75
2023-04-16T03:51:32.909Z,8.52
2023-04-16T03:54:34.776Z,8.65
2023-04-16T03:57:36.580Z,8.17
2023-04-16T04:00:41.155Z,8.15
2023-04-16T04:03:43.294Z,8.55
2023-04-16T04:06:45.657Z,8.93
2023-04-16T04:09:47.479Z,8.53
2023-04-16T04:12:49.386Z,8.77
2023-04-16T04:15:51.560Z,8.63
2023-04-16T04:18:53.403Z,8.58
2023-04-16T04:21:55.444Z,8.61
2023-04-16T04:24:57.244Z,9.06
2023-04-16T04:27:59.117Z,8.14
2023-04-16T04:31:01.380Z,8.43
2023-04-16T04:34:03.311Z,9.17
2023-04-16T04:37:05.209Z,8.99
2023-04-16T04:40:07.510Z,8.54
2023-04-16T04:43:09.402Z,9.32
2023-04-16T04:46:11.446Z,9.72
2023-04-16T04:49:13.339Z,9.39
2023-04-16T04:52:15.357Z,9.04
2023-04-16T04:55:17.260Z,8.98
2023-04-16T04:58:19.147Z,9.55
2023-04-16T05:01:21.120Z,9.76
2023-04-16T05:04:23.023Z,9.49
2023-04-16T05:07:24.981Z,9.38
2023-04-16T05:10:27.093Z,9.09
2023-04-16T05:13:28.974Z,9.56
2023-04-16T05:16:30.913Z,9.42
2023-04-16T05:19:32.920Z,9.89
2023-04-16T05:22:34.765Z,9.09
2023-04-16T05:25:36.917Z,9.54
2023-04-16T05:28:38.776Z,9.18
2023-04-16T05:31:41.051Z,9.44
2023-04-16T05:34:42.917Z,10.22
2023-04-16T05:37:44.783Z,9.80
2023-04-16T05:40:46.594Z,10.01
2023-04-16T05:43:48.489Z,9.84
2023-04-16T05:46:50.344Z,9.26
2023-04-16T05:49:52.189Z,9.58
2023-04-16T05:52:54.135Z,9.72
2023-04-16T05:55:56.032Z,9.32
2023-04-16T05:58:58.132Z,9.32
2023-04-16T06:02:00.388Z,8.94
2023-04-16T06:05:02.575Z,9.24
2023-04-16T06:08:04.421Z,9.27
2023-04-16T06:11:06.609Z,9.42
2023-04-16T06:14:08.457Z,9.68
2023-04-16T06:17:10.492Z,9.75
2023-04-16T06:20:12.642Z,9.39
2023-04-16T06:23:14.783Z,8.86
2023-04-16T06:26:16.875Z,9.86
2023-04-16T06:29:18.719Z,9.77
2023-04-16T06:32:20.681Z,10.44
2023-04-16T06:35:22.672Z,10.73
2023-04-16T06:38:24.577Z,10.97
2023-04-16T06:41:27.227Z,11.30
2023-04-16T06:44:29.113Z,10.67
2023-04-16T06:47:31.014Z,11.23
2023-04-16T06:50:33.134Z,10.61
2023-04-16T06:53:37.464Z,11.12
2023-04-16T06:56:39.371Z,11.35
2023-04-16T06:59:41.317Z,10.75
2023-04-16T07:02:43.284Z,11.67
2023-04-16T07:05:45.399Z,11.18
2023-04-16T07:08:47.290Z,11.60
2023-04-16T07:11:49.135Z,12.15
2023-04-16T07:14:51.011Z,12.19
2023-04-16T07:17:52.966Z,12.48
2023-04-16T07:20:54.805Z,12.77
2023-04-16T07:23:56.755Z,12.58
2023-04-16T07:26:58.825Z,12.92
2023-04-16T07:30:01.054Z,13.07
2023-04-16T07:33:03.457Z,13.83
2023-04-16T07:36:05.479Z,14.28
2023-04-16T07:39:07.356Z,13.16
2023-04-16T07:42:09.275Z,13.01
2023-04-16T07:45:11.434Z,11.61
2023-04-16T07:48:13.583Z,12.87
2023-04-16T07:51:15.680Z,11.34
2023-04-16T07:54:17.573Z,12.86
2023-04-16T07:57:19.411Z,12.60
2023-04-16T08:00:21.419Z,13.06
2023-04-16T08:03:23.633Z,12.55
2023-04-16T08:06:26.775Z,13.46
2023-04-16T08:09:29.027Z,13.47
2023-04-16T08:12:31.041Z,13.80
2023-04-16T08:15:32.929Z,13.91
2023-04-16T08:18:34.824Z,15.20
2023-04-16T08:21:36.711Z,15.27
2023-04-16T08:24:38.586Z,15.23
2023-04-16T08:27:40.638Z,14.03
2023-04-16T08:30:42.503Z,15.20
2023-04-16T08:33:44.493Z,14.90
2023-04-16T08:36:46.425Z,13.44
2023-04-16T08:39:48.300Z,14.15
2023-04-16T08:42:53.402Z,15.20
2023-04-16T08:45:56.558Z,15.50
2023-04-16T08:48:58.378Z,15.21
2023-04-16T08:52:00.438Z,16.88
2023-04-16T08:55:02.538Z,16.64
2023-04-16T08:58:07.837Z,16.65
2023-04-16T09:01:09.766Z,14.55
2023-04-16T09:04:11.857Z,15.45
2023-04-16T09:07:13.849Z,16.23
2023-04-16T09:10:16.406Z,16.25
2023-04-16T09:13:20.514Z,17.57
2023-04-16T09:16:22.506Z,16.35
2023-04-16T09:19:24.552Z,16.39
2023-04-16T09:22:26.415Z,15.80
2023-04-16T09:25:28.298Z,15.35
2023-04-16T09:28:40.902Z,14.29
2023-04-16T09:31:42.944Z,15.86
2023-04-16T09:34:53.918Z,15.35
2023-04-16T09:37:56.959Z,15.06
2023-04-16T09:41:08.327Z,15.07
2023-04-16T09:44:10.194Z,15.09
2023-04-16T09:47:12.773Z,15.23
2023-04-16T09:50:18.901Z,15.49
2023-04-16T09:53:27.977Z,15.88
2023-04-16T09:56:30.544Z,15.39
2023-04-16T09:59:34.202Z,16.30
2023-04-16T10:02:39.236Z,16.12
2023-04-16T10:05:41.456Z,17.11
2023-04-16T10:08:44.137Z,17.78
2023-04-16T10:11:46.028Z,18.70
2023-04-16T10:14:50.008Z,18.00
2023-04-16T10:17:52.307Z,17.55
2023-04-16T10:20:54.210Z,17.63
2023-04-16T10:23:55.998Z,18.66
2023-04-16T10:26:58.216Z,20.07
2023-04-16T10:30:00.477Z,19.75
2023-04-16T10:33:03.108Z,21.14
2023-04-16T10:36:09.603Z,21.95
2023-04-16T10:39:14.709Z,20.27
2023-04-16T10:42:18.741Z,19.70
2023-04-16T10:45:21.545Z,21.59
2023-04-16T10:48:30.812Z,20.28
2023-04-16T10:51:37.664Z,20.94
2023-04-16T10:54:39.820Z,19.15
2023-04-16T10:57:41.716Z,20.91
2023-04-16T11:00:51.102Z,21.59
2023-04-16T11:03:53.140Z,19.85
2023-04-16T11:07:04.532Z,21.04
2023-04-16T11:10:06.855Z,20.06
2023-04-16T11:13:09.666Z,21.78
2023-04-16T11:16:12.150Z,22.22
2023-04-16T11:19:17.762Z,22.21
2023-04-16T11:22:19.628Z,22.28
2023-04-16T11:25:22.453Z,24.21
2023-04-16T11:28:34.350Z,21.35
2023-04-16T11:31:36.330Z,22.74
2023-04-16T11:34:45.402Z,21.66
2023-04-16T11:37:48.433Z,20.81
2023-04-16T11:40:51.664Z,21.17
2023-04-16T11:43:53.595Z,19.82
2023-04-16T11:46:55.711Z,21.43
2023-04-16T11:49:58.292Z,21.18
2023-04-16T11:53:03.824Z,20.18
2023-04-16T11:56:05.755Z,19.79
2023-04-16T11:59:11.380Z,19.99
2023-04-16T12:02:13.616Z,20.52
2023-04-16T12:05:31.962Z,21.19
2023-04-16T12:08:33.876Z,20.56
2023-04-16T12:11:39.605Z,22.13
2023-04-16T12:14:49.467Z,20.81
2023-04-16T12:17:54.503Z,20.14
2023-04-16T12:20:56.394Z,21.73
2023-04-16T12:23:58.238Z,22.71
2023-04-16T12:27:03.085Z,21.33
2023-04-16T12:30:07.333Z,20.77
2023-04-16T12:33:16.685Z,20.27
2023-04-16T12:36:18.937Z,21.59
2023-04-16T12:39:20.798Z,20.78
2023-04-16T12:42:22.715Z,21.13
2023-04-16T12:45:24.773Z,20.64
2023-04-16T12:48:26.650Z,21.21
2023-04-16T12:51:28.548Z,20.76
2023-04-16T12:54:31.347Z,20.61
2023-04-16T12:57:33.199Z,21.33
2023-04-16T13:00:35.088Z,19.77
2023-04-16T13:03:37.287Z,19.53
2023-04-16T13:06:40.193Z,20.19
2023-04-16T13:09:42.404Z,20.26
2023-04-16T13:12:44.250Z,20.24
2023-04-16T13:15:46.244Z,20.23
2023-04-16T13:18:48.238Z,19.13
2023-04-16T13:21:50.064Z,19.38
2023-04-16T13:24:51.928Z,19.59
2023-04-16T13:27:56.377Z,18.91
2023-04-16T13:30:58.300Z,19.24
2023-04-16T13:34:00.245Z,20.54
2023-04-16T13:37:02.250Z,19.73
2023-04-16T13:40:04.397Z,19.34
2023-04-16T13:43:07.805Z,18.96
2023-04-16T13:46:09.813Z,19.77
2023-04-16T13:49:11.827Z,19.27
2023-04-16T13:52:13.788Z,18.58
2023-04-16T13:55:19.215Z,19.03
2023-04-16T13:58:21.317Z,19.20
2023-04-16T14:01:23.468Z,18.77
2023-04-16T14:04:25.840Z,19.53
2023-04-16T14:07:27.806Z,18.69
2023-04-16T14:10:29.713Z,19.19
2023-04-16T14:13:31.747Z,18.75
2023-04-16T14:16:33.957Z,19.13
2023-04-16T14:19:35.879Z,18.22
2023-04-16T14:22:37.789Z,18.26
2023-04-16T14:25:39.724Z,18.45
2023-04-16T14:28:41.698Z,18.47
2023-04-16T14:31:43.639Z,18.45
2023-04-16T14:34:45.637Z,18.09
2023-04-16T14:37:47.475Z,17.65
2023-04-16T14:40:49.476Z,18.50
2023-04-16T14:43:51.475Z,18.74
2023-04-16T14:46:53.837Z,18.72
2023-04-16T14:49:55.723Z,18.56
2023-04-16T14:52:57.826Z,19.06
2023-04-16T14:55:59.812Z,18.30
2023-04-16T14:59:01.666Z,19.17
2023-04-16T15:02:03.756Z,18.51
2023-04-16T15:05:07.815Z,18.75
2023-04-16T15:08:09.791Z,18.63
2023-04-16T15:11:11.666Z,18.22
2023-04-16T15:14:13.573Z,19.19
2023-04-16T15:17:15.457Z,18.60
2023-04-16T15:20:17.476Z,18.45
2023-04-16T15:23:19.350Z,19.59
2023-04-16T15:26:21.571Z,19.44
2023-04-16T15:29:23.455Z,19.00
2023-04-16T15:32:25.506Z,18.41
2023-04-16T15:35:27.454Z,19.28
2023-04-16T15:38:30.731Z,19.19
2023-04-16T15:41:34.828Z,18.16
2023-04-16T15:44:36.922Z,18.29
2023-04-16T15:47:41.508Z,17.63
2023-04-16T15:50:43.884Z,18.52
2023-04-16T15:53:45.981Z,18.81
2023-04-16T15:56:47.827Z,18.64
2023-04-16T16:00:05.308Z,18.63
2023-04-16T16:03:09.628Z,18.12
2023-04-16T16:06:11.706Z,18.13
2023-04-16T16:09:13.679Z,18.73
2023-04-16T16:12:15.624Z,18.28
2023-04-16T16:15:17.677Z,18.01
2023-04-16T16:18:19.528Z,17.92
2023-04-16T16:21:21.872Z,17.96
2023-04-16T16:24:23.995Z,17.73
2023-04-16T16:27:26.027Z,17.71
2023-04-16T16:30:27.919Z,18.50
2023-04-16T16:33:30.600Z,17.79
2023-04-16T16:36:36.775Z,17.90
2023-04-16T16:39:39.114Z,17.94
2023-04-16T16:42:41.176Z,17.83
2023-04-16T16:45:43.115Z,17.87
2023-04-16T16:48:45.078Z,18.29
2023-04-16T16:51:47.520Z,18.10
2023-04-16T16:54:49.386Z,17.79
2023-04-16T16:57:51.313Z,18.35
2023-04-16T17:00:53.336Z,18.07
2023-04-16T17:03:56.231Z,17.42
2023-04-16T17:06:58.195Z,17.90
2023-04-16T17:10:03.064Z,17.89
2023-04-16T17:13:06.656Z,18.30
2023-04-16T17:16:08.616Z,18.38
2023-04-16T17:19:12.369Z,18.52
2023-04-16T17:22:14.451Z,18.03
2023-04-16T17:25:16.401Z,18.29
2023-04-16T17:28:18.407Z,18.02
2023-04-16T17:31:20.304Z,18.36
2023-04-16T17:34:22.479Z,17.92
2023-04-16T17:37:24.348Z,17.06
2023-04-16T17:40:26.229Z,17.49
2023-04-16T17:43:28.597Z,17.13
2023-04-16T17:46:30.738Z,16.71
2023-04-16T17:49:32.842Z,16.69
2023-04-16T17:52:34.760Z,17.17
2023-04-16T17:55:36.715Z,17.24
2023-04-16T17:58:38.641Z,17.35
2023-04-16T18:01:41.037Z,17.43
2023-04-16T18:04:43.161Z,16.61
2023-04-16T18:07:47.015Z,16.60
2023-04-16T18:10:48.962Z,17.05
2023-04-16T18:13:53.111Z,16.87
2023-04-16T18:16:55.045Z,16.54
2023-04-16T18:19:56.956Z,16.29
2023-04-16T18:22:58.872Z,16.03
2023-04-16T18:26:00.726Z,16.73
2023-04-16T18:29:03.074Z,16.95
2023-04-16T18:32:05.463Z,16.56
2023-04-16T18:35:07.674Z,16.63
2023-04-16T18:38:09.656Z,16.77
2023-04-16T18:41:20.874Z,15.80
2023-04-16T18:44:23.671Z,15.63
2023-04-16T18:47:25.794Z,16.05
2023-04-16T18:50:27.657Z,16.29
2023-04-16T18:53:29.664Z,15.73
2023-04-16T18:56:31.560Z,16.18
2023-04-16T18:59:33.507Z,15.34
2023-04-16T19:02:35.496Z,16.02
2023-04-16T19:05:37.407Z,15.83
2023-04-16T19:08:39.282Z,16.01
2023-04-16T19:11:41.286Z,15.90
2023-04-16T19:14:43.248Z,15.94
2023-04-16T19:17:45.166Z,16.42
2023-04-16T19:20:47.159Z,16.58
2023-04-16T19:23:49.243Z,16.28
2023-04-16T19:26:51.155Z,16.14
2023-04-16T19:29:53.125Z,16.38
2023-04-16T19:32:55.661Z,15.98
2023-04-16T19:35:57.710Z,16.02
2023-04-16T19:38:59.724Z,16.19
2023-04-16T19:42:01.769Z,16.24
2023-04-16T19:45:03.960Z,15.33
2023-04-16T19:48:05.954Z,15.90
2023-04-16T19:51:07.964Z,15.52
2023-04-16T19:54:09.800Z,15.83
2023-04-16T19:57:11.764Z,15.50
2023-04-16T20:00:13.934Z,16.07
2023-04-16T20:03:15.829Z,16.71
2023-04-16T20:06:17.744Z,16.24
2023-04-16T20:09:20.288Z,15.97
2023-04-16T20:12:22.928Z,16.45
2023-04-16T20:15:24.876Z,16.49
2023-04-16T20:18:28.872Z,15.67
2023-04-16T20:21:32.075Z,16.07
2023-04-16T20:24:34.311Z,15.74
2023-04-16T20:27:36.289Z,16.04
2023-04-16T20:30:41.329Z,15.74
2023-04-16T20:33:43.227Z,15.53
2023-04-16T20:36:45.241Z,15.59
2023-04-16T20:39:50.221Z,16.48
2023-04-16T20:42:52.305Z,15.71
2023-04-16T20:45:54.216Z,15.70
2023-04-16T20:48:56.187Z,16.24
2023-04-16T20:51:58.072Z,15.29
2023-04-16T20:54:59.937Z,15.45
2023-04-16T20:58:01.844Z,15.35
2023-04-16T21:01:05.904Z,16.03
2023-04-16T21:04:08.183Z,15.73
2023-04-16T21:07:10.222Z,15.89
2023-04-16T21:10:12.230Z,15.84
2023-04-16T21:13:14.373Z,15.55
2023-04-16T21:16:16.476Z,15.93
2023-04-16T21:19:18.386Z,15.55
2023-04-16T21:22:20.491Z,15.29
2023-04-16T21:25:25.673Z,15.76
2023-04-16T21:28:27.518Z,15.92
2023-04-16T21:31:29.443Z,15.27
2023-04-16T21:34:31.313Z,15.17
2023-04-16T21:37:33.195Z,15.55
2023-04-16T21:40:35.013Z,15.14
2023-04-16T21:43:36.958Z,14.69
2023-04-16T21:46:38.893Z,14.70
2023-04-16T21:49:42.360Z,14.81
2023-04-16T21:52:46.167Z,14.94
2023-04-16T21:55:48.080Z,15.08
2023-04-16T21:58:49.983Z,14.73
2023-04-16T22:01:52.046Z,14.73
2023-04-16T22:04:54.127Z,14.90
2023-04-16T22:07:56.285Z,14.58
2023-04-16T22:10:59.192Z,15.35
2023-04-16T22:14:01.092Z,14.93
2023-04-16T22:17:03.461Z,15.65
2023-04-16T22:20:11.539Z,15.48
2023-04-16T22:23:13.735Z,15.65
2023-04-16T22:26:15.669Z,15.95
2023-04-16T22:29:17.738Z,15.76
2023-04-16T22:32:19.711Z,15.30
2023-04-16T22:35:21.682Z,15.27
2023-04-16T22:38:23.713Z,14.70
2023-04-16T22:41:25.574Z,15.64
2023-04-16T22:44:27.434Z,15.72
2023-04-16T22:47:29.305Z,15.49
2023-04-16T22:50:31.522Z,15.72
2023-04-16T22:53:33.503Z,14.86
2023-04-16T22:56:35.668Z,15.90
2023-04-16T22:59:37.774Z,15.40
2023-04-16T23:02:39.749Z,15.28
2023-04-16T23:05:41.661Z,15.11
2023-04-16T23:08:43.554Z,15.43
2023-04-16T23:11:45.760Z,15.34
2023-04-16T23:14:48.143Z,14.93
2023-04-16T23:17:50.041Z,15.43
2023-04-16T23:20:52.746Z,15.29
2023-04-16T23:23:54.909Z,15.34
2023-04-16T23:26:57.992Z,14.59
2023-04-16T23:29:59.827Z,14.83
2023-04-16T23:33:02.978Z,15.30
2023-04-16T23:36:05.120Z,15.01
2023-04-16T23:39:07.078Z,15.18
2023-04-16T23:42:08.953Z,14.95
2023-04-16T23:45:10.978Z,15.04
2023-04-16T23:48:12.870Z,15.60
2023-04-16T23:51:14.787Z,15.24
2023-04-16T23:54:17.214Z,15.31
2023-04-16T23:57:19.175Z,14.53
